• Join FlightAware (Why Join?)
  • Login
  • US Flag 
11:30AM EST


 

Airport Tracker/Info


-or-


 

Live Flight TrackerFlight Track Log ✈ UAL1259 ✈ 19-Apr-2013 ✈ KLAX - KDEN

Flight Track Log - Related Links

Times and Time Zones

All times are in EDT time to prevent confusion due to time zone crossing. See the UAL1259 flight status page for this flight to view local times or setup timezone preferences in your user account.

Time Position Orientation Groundspeed Altitude Reporting Facility
EDT Latitude Longitude Course Direction KTS MPH feet Rate Location/Type
09:15PM 33.9340 -118.4310 261° West 168 193 1,300  Level FlightAware
09:16PM 33.9310 -118.4590 263° West 209 241 2,000 2,280 Climbing FlightAware
09:16PM 33.9220 -118.4880 250° West 226 260 3,200 2,400 Climbing FlightAware
09:17PM 33.9090 -118.5240 246° West 259 298 4,200 2,400 Climbing FlightAware
09:17PM 33.8930 -118.5590 241° Southwest 273 314 5,600 2,880 Climbing FlightAware
09:18PM 33.8740 -118.5710 208° Southwest 284 327 6,400 2,880 Climbing FlightAware
09:18PM 33.8610 -118.5730 187° South 284 327 6,800 2,400 Climbing FlightAware
09:18PM 33.8300 -118.5590 159° South 298 343 8,000 2,760 Climbing FlightAware
09:18PM 33.8150 -118.5340 126° Southeast 298 343 8,900 3,120 Climbing FlightAware
09:19PM 33.8120 -118.5170 102° East 300 345 9,300 2,820 Climbing FlightAware
09:19PM 33.8280 -118.4690 68° East 295 339 10,800 2,640 Climbing FlightAware
09:19PM 33.8410 -118.4600 30° Northeast 292 336 11,300 2,580 Climbing FlightAware
09:20PM 33.8630 -118.4540 13° North 287 330 12,100 1,920 Climbing FlightAware
09:20PM 33.9140 -118.4390 14° North 325 374 13,100 1,260 Climbing FlightAware
09:21PM 33.9530 -118.3980 41° Northeast 382 440 13,600 1,440 Climbing FlightAware
09:21PM 33.9950 -118.3240 56° Northeast 410 472 14,800 2,160 Climbing FlightAware
09:22PM 34.0450 -118.2350 56° Northeast 420 483 16,700 2,520 Climbing FlightAware
09:23PM 34.0930 -118.1510 55° Northeast 427 491 18,400 2,400 Climbing FlightAware
09:24PM 34.1520 -118.0460 56° Northeast 443 510 20,100 2,040 Climbing FlightAware
09:24PM 34.2000 -117.9610 56° Northeast 453 521 21,300 1,800 Climbing FlightAware
09:25PM 34.2470 -117.8770 56° Northeast 461 531 22,500 1,620 Climbing FlightAware
09:26PM 34.3030 -117.7770 56° Northeast 470 541 23,600 1,380 Climbing FlightAware
09:26PM 34.3520 -117.6900 56° Northeast 482 555 24,500 1,260 Climbing FlightAware
09:27PM 34.4130 -117.5970 51° Northeast 485 558 25,400 1,320 Climbing FlightAware
09:28PM 34.4710 -117.5140 50° Northeast 490 564 26,400 1,680 Climbing FlightAware
09:28PM 34.5300 -117.4320 49° Northeast 484 557 27,700 1,680 Climbing FlightAware
09:29PM 34.5980 -117.3350 50° Northeast 486 559 28,800 1,320 Climbing FlightAware
09:30PM 34.6560 -117.2520 50° Northeast 490 564 29,600 1,320 Climbing FlightAware
09:31PM 34.7190 -117.1620 50° Northeast 488 562 30,700 1,500 Climbing FlightAware
09:31PM 34.7790 -117.0760 50° Northeast 483 556 31,800 1,500 Climbing FlightAware
09:32PM 34.8340 -116.9980 49° Northeast 480 552 32,700 960 Climbing FlightAware
09:33PM 34.8900 -116.9180 50° Northeast 477 549 33,100 1,380 Climbing FlightAware
09:33PM 34.9580 -116.8190 50° Northeast 473 544 34,700 1,620 Climbing FlightAware
09:34PM 35.0200 -116.7300 50° Northeast 469 540 35,600 840 Climbing FlightAware
09:35PM 35.0730 -116.6550 49° Northeast 467 537 35,900 780 Climbing FlightAware
09:35PM 35.1240 -116.5790 51° Northeast 469 540 36,600 660 Climbing FlightAware
09:36PM 35.1960 -116.4740 50° Northeast 480 552 36,900 240 Climbing FlightAware
09:37PM 35.2520 -116.3920 50° Northeast 480 552 37,000 60 Climbing FlightAware
09:38PM 35.3140 -116.3010 50° Northeast 471 542 37,000  Level FlightAware
09:38PM 35.3670 -116.2240 50° Northeast 471 542 37,000  Level FlightAware
09:39PM 35.4300 -116.1310 50° Northeast 472 543 37,000  Level FlightAware
09:40PM 35.4910 -116.0410 50° Northeast 473 544 37,000  Level FlightAware
09:40PM 35.5460 -115.9590 50° Northeast 475 547 37,000  Level FlightAware
09:41PM 35.5960 -115.8860 50° Northeast 476 548 37,000  Level FlightAware
09:42PM 35.6510 -115.8050 50° Northeast 476 548 37,000  Level FlightAware
09:42PM 35.7230 -115.6970 51° Northeast 481 554 37,000  Level FlightAware
09:43PM 35.7870 -115.6000 51° Northeast 483 556 37,000  Level FlightAware
09:44PM 35.8430 -115.5170 50° Northeast 483 556 37,000  Level FlightAware
09:45PM 35.9010 -115.4300 51° Northeast 484 557 37,000  Level FlightAware
09:45PM 35.9650 -115.3330 51° Northeast 483 556 37,000  Level FlightAware
09:46PM 36.0200 -115.2490 51° Northeast 484 557 37,000  Level FlightAware
09:47PM 36.0790 -115.1480 54° Northeast 495 570 37,000  Level FlightAware
09:47PM 36.1150 -115.0460 66° East 506 582 37,000  Level FlightAware
09:48PM 36.1480 -114.9380 69° East 507 583 37,000  Level FlightAware
09:49PM 36.1880 -114.8100 69° East 508 585 37,000  Level FlightAware
09:49PM 36.2210 -114.7010 69° East 512 589 37,000  Level FlightAware
09:50PM 36.2540 -114.5930 69° East 512 589 37,000  Level FlightAware
09:51PM 36.2900 -114.4730 70° East 513 590 37,000  Level FlightAware
09:52PM 36.3250 -114.3600 69° East 516 594 37,000  Level FlightAware
09:52PM 36.3630 -114.2320 70° East 517 595 37,000  Level FlightAware
09:53PM 36.3960 -114.1230 69° East 516 594 37,000  Level FlightAware
09:54PM 36.4330 -114.0000 69° East 516 594 37,000  Level FlightAware
09:54PM 36.4660 -113.8890 70° East 516 594 37,000  Level FlightAware
09:55PM 36.4980 -113.7790 70° East 516 594 37,000  Level FlightAware
09:56PM 36.5350 -113.6550 70° East 516 594 37,000  Level FlightAware
09:56PM 36.5690 -113.5390 70° East 514 592 37,000  Level FlightAware
09:57PM 36.6030 -113.4240 70° East 512 589 37,000  Level FlightAware
09:58PM 36.6370 -113.3050 70° East 512 589 37,000  Level FlightAware
09:59PM 36.6690 -113.1960 70° East 514 592 37,000  Level FlightAware
09:59PM 36.7050 -113.0730 70° East 508 585 37,000  Level FlightAware
10:00PM 36.7430 -112.9640 66° East 502 578 37,000  Level FlightAware
10:01PM 36.7810 -112.8560 66° East 503 579 37,000  Level FlightAware
10:01PM 36.8210 -112.7400 67° East 499 574 37,000  Level FlightAware
10:02PM 36.8570 -112.6360 67° East 494 568 37,000  Level FlightAware
10:03PM 36.8920 -112.5340 67° East 491 565 37,000  Level FlightAware
10:03PM 36.9320 -112.4220 66° East 491 565 37,000  Level FlightAware
10:04PM 36.9630 -112.3340 66° East 491 565 37,000  Level FlightAware
10:05PM 36.9940 -112.2460 66° East 491 565 37,000  Level FlightAware
10:05PM 37.0260 -112.1570 66° East 491 565 37,000  Level FlightAware
10:06PM 37.0650 -112.0470 66° East 491 565 37,000  Level FlightAware
10:07PM 37.0960 -111.9580 66° East 491 565 37,000  Level FlightAware
10:08PM 37.1280 -111.8700 65° Northeast 491 565 37,000  Level FlightAware
10:08PM 37.1590 -111.7810 66° East 491 565 37,000  Level FlightAware
10:09PM 37.1910 -111.6930 65° Northeast 491 565 37,000  Level FlightAware
10:10PM 37.2300 -111.5820 66° East 491 565 37,000  Level FlightAware
10:10PM 37.2610 -111.4930 66° East 491 565 37,000  Level FlightAware
10:11PM 37.2930 -111.4050 65° Northeast 491 565 37,000  Level FlightAware
10:12PM 37.3240 -111.3160 66° East 491 565 37,000  Level FlightAware
10:13PM 37.3630 -111.2050 66° East 491 565 37,000  Level FlightAware
10:13PM 37.4364 -110.9061 66° East 497 572 37,000  Level Denver Center
10:14PM 37.4867 -110.7481 68° East 490 564 37,000  Level Denver Center
10:15PM 37.5381 -110.5867 68° East 496 571 37,000  Level Denver Center
10:16PM 37.5878 -110.4353 67° East 494 568 37,000  Level Denver Center
10:17PM 37.6458 -110.2553 68° East 496 571 37,000  Level Denver Center
10:18PM 37.7031 -110.0742 68° East 497 572 37,000  Level Denver Center
10:19PM 37.7511 -109.9181 69° East 497 572 37,000  Level Denver Center
10:20PM 37.8097 -109.7325 68° East 504 580 37,000  Level Denver Center
10:21PM 37.8589 -109.5744 68° East 504 580 37,000  Level Denver Center
10:22PM 37.9164 -109.3878 69° East 508 585 37,000  Level Denver Center
10:23PM 37.9647 -109.2294 69° East 505 581 37,000  Level Denver Center
10:24PM 38.0139 -109.0703 69° East 506 582 37,000  Level Denver Center
10:25PM 38.0706 -108.8806 69° East 511 588 37,000  Level Denver Center
10:26PM 38.1175 -108.7225 69° East 506 582 37,000  Level Denver Center
10:27PM 38.1722 -108.5419 69° East 497 572 37,000  Level Denver Center
10:28PM 38.2192 -108.3825 69° East 501 577 37,000  Level Denver Center
10:29PM 38.2742 -108.1997 69° East 499 574 37,000 -300 Level Denver Center
10:35PM 38.5869 -107.2930 69° East 478 550 35,400 -360 Descending FlightAware ADS-B
10:36PM 38.6199 -107.2190 60° Northeast 477 549 34,900 -960 Descending FlightAware ADS-B
10:36PM 38.6630 -107.1220 60° Northeast 476 548 34,300 -900 Descending FlightAware ADS-B
10:37PM 38.7233 -106.9870 60° Northeast 486 559 33,500 -960 Descending FlightAware ADS-B
10:38PM 38.7581 -106.9080 61° Northeast 498 573 33,000 -1,020 Descending FlightAware ADS-B
10:38PM 38.7933 -106.8280 61° Northeast 503 579 32,500 -1,020 Descending FlightAware ADS-B
10:39PM 38.8276 -106.7500 61° Northeast 505 581 32,000 -1,020 Descending FlightAware ADS-B
10:39PM 38.8620 -106.6720 60° Northeast 501 577 31,500 -1,020 Descending FlightAware ADS-B
10:40PM 38.8968 -106.5950 60° Northeast 496 571 31,000 -540 Descending FlightAware ADS-B
10:40PM 38.9328 -106.5180 59° Northeast 496 571 31,000  Level FlightAware ADS-B
10:41PM 38.9686 -106.4420 59° Northeast 494 568 31,000 -120 Level FlightAware ADS-B
10:41PM 39.0039 -106.3650 59° Northeast 493 567 30,900 -1,680 Descending FlightAware ADS-B
10:42PM 39.0397 -106.2860 60° Northeast 494 568 29,300 -2,520 Descending FlightAware ADS-B
10:42PM 39.0740 -106.2110 59° Northeast 479 551 28,300 -1,320 Descending FlightAware ADS-B
10:43PM 39.1064 -106.1380 60° Northeast 458 527 28,000 -1,500 Descending FlightAware ADS-B
10:43PM 39.1386 -106.0660 60° Northeast 453 521 26,800 -2,220 Descending FlightAware ADS-B
10:44PM 39.1687 -105.9970 61° Northeast 436 502 25,800 -2,040 Descending FlightAware ADS-B
10:44PM 39.1986 -105.9290 60° Northeast 423 487 24,800 -2,040 Descending FlightAware ADS-B
10:45PM 39.2275 -105.8650 60° Northeast 413 475 23,800 -2,100 Descending FlightAware ADS-B
10:45PM 39.2559 -105.8000 61° Northeast 406 467 22,700 -2,100 Descending FlightAware ADS-B
10:46PM 39.2836 -105.7370 60° Northeast 400 460 21,700 -1,740 Descending FlightAware ADS-B
10:46PM 39.3107 -105.6750 61° Northeast 387 445 21,000 -1,500 Descending FlightAware ADS-B
10:47PM 39.3364 -105.6160 61° Northeast 373 429 20,200 -1,680 Descending FlightAware ADS-B
10:47PM 39.3618 -105.5580 60° Northeast 369 425 19,300 -1,500 Descending FlightAware ADS-B
10:48PM 39.3834 -105.5080 61° Northeast 356 410 18,800 -1,020 Descending FlightAware ADS-B
10:48PM 39.3864 -105.4990 67° East 352 405 18,800  Level FlightAware ADS-B
10:48PM 39.3882 -105.4920 72° East 350 403 18,800 -720 Level FlightAware ADS-B
10:48PM 39.3899 -105.4810 79° East 349 402 18,700 -1,140 Descending FlightAware ADS-B
10:48PM 39.3905 -105.4690 86° East 348 400 18,600 -1,380 Descending FlightAware ADS-B
10:48PM 39.3905 -105.4620 90° East 348 400 18,500 -1,080 Descending FlightAware ADS-B
10:49PM 39.3884 -105.3990 92° East 342 394 18,000 -1,080 Descending FlightAware ADS-B
10:49PM 39.3858 -105.3440 93° East 335 386 17,500 -1,080 Descending FlightAware ADS-B
10:50PM 39.3831 -105.2840 93° East 337 388 17,000 -1,020 Descending FlightAware ADS-B
10:50PM 39.3805 -105.2240 93° East 333 383 16,500 -1,200 Descending FlightAware ADS-B
10:51PM 39.3778 -105.1600 93° East 331 381 15,800 -1,440 Descending FlightAware ADS-B
10:51PM 39.3759 -105.1070 93° East 327 376 15,100 -900 Descending FlightAware ADS-B
10:52PM 39.3745 -105.0460 92° East 304 350 14,900 -420 Descending FlightAware ADS-B
10:52PM 39.3743 -104.9910 90° East 281 323 14,700 -720 Descending FlightAware ADS-B
10:53PM 39.3751 -104.9410 89° East 274 315 14,200 -1,140 Descending FlightAware ADS-B
10:53PM 39.3761 -104.8920 88° East 269 310 13,600 -1,200 Descending FlightAware ADS-B
10:53PM 39.3760 -104.8680 90° East 268 308 13,300 -1,260 Descending FlightAware ADS-B
10:54PM 39.3745 -104.8530 97° East 268 308 13,100 -1,200 Descending FlightAware ADS-B
10:54PM 39.3674 -104.7980 99° East 269 310 12,400 -1,080 Descending FlightAware ADS-B
10:55PM 39.3628 -104.7630 100° East 265 305 12,100 -780 Descending FlightAware ADS-B
10:55PM 39.3620 -104.7460 93° East 262 302 12,000 -840 Descending FlightAware ADS-B
10:55PM 39.3619 -104.7160 90° East 260 299 11,700 -1,140 Descending FlightAware ADS-B
10:55PM 39.3622 -104.7110 86° East 260 299 11,600 -1,380 Descending FlightAware ADS-B
10:55PM 39.3636 -104.7030 77° East 259 298 11,500 -1,020 Descending FlightAware ADS-B
10:55PM 39.3663 -104.6950 66° East 258 297 11,400 -1,020 Descending FlightAware ADS-B
10:55PM 39.3700 -104.6870 59° Northeast 255 293 11,300 -1,140 Descending FlightAware ADS-B
10:55PM 39.3745 -104.6810 46° Northeast 253 291 11,200 -1,380 Descending FlightAware ADS-B
10:56PM 39.3783 -104.6780 31° Northeast 252 290 11,100 -780 Descending FlightAware ADS-B
10:56PM 39.3818 -104.6750 34° Northeast 251 289 11,100 -420 Level FlightAware ADS-B
10:56PM 39.3958 -104.6690 18° North 251 289 11,000 -360 Descending FlightAware ADS-B
10:56PM 39.4039 -104.6670 11° North 250 288 11,000  Level FlightAware ADS-B
10:56PM 39.4132 -104.6650 North 251 289 11,000 -660 Level FlightAware ADS-B
10:56PM 39.4369 -104.6640 North 247 284 10,700 -840 Descending FlightAware ADS-B
10:57PM 39.4713 -104.6650 359° North 235 270 10,300 -780 Descending FlightAware ADS-B
10:57PM 39.4803 -104.6650 360° North 231 266 10,200 -600 Descending FlightAware ADS-B
10:57PM 39.5028 -104.6650 360° North 223 257 10,000 -360 Descending FlightAware ADS-B
10:58PM 39.5185 -104.6640 North 211 243 10,000  Level FlightAware ADS-B
10:58PM 39.5330 -104.6640 360° North 203 234 10,000  Level FlightAware ADS-B
10:58PM 39.5491 -104.6640 360° North 202 232 10,000  Level FlightAware ADS-B
10:58PM 39.5630 -104.6640 360° North 201 231 10,000  Level FlightAware ADS-B
10:59PM 39.5771 -104.6640 360° North 201 231 10,000  Level FlightAware ADS-B
10:59PM 39.5915 -104.6630 North 202 232 10,000 -420 Level FlightAware ADS-B
10:59PM 39.6060 -104.6630 360° North 204 235 9,800 -1,200 Descending FlightAware ADS-B
10:59PM 39.6210 -104.6630 360° North 208 239 9,400 -1,260 Descending FlightAware ADS-B
11:00PM 39.6383 -104.6630 360° North 205 236 9,100 -1,080 Descending FlightAware ADS-B
11:00PM 39.6536 -104.6630 360° North 191 220 8,800 -960 Descending FlightAware ADS-B
11:00PM 39.6674 -104.6620 North 182 209 8,600 -900 Descending FlightAware ADS-B
11:01PM 39.6821 -104.6620 360° North 173 199 8,300 -1,080 Descending FlightAware ADS-B
11:01PM 39.6942 -104.6620 360° North 165 190 8,000 -1,020 Descending FlightAware ADS-B
11:01PM 39.7056 -104.6620 360° North 163 188 7,800 -780 Descending FlightAware ADS-B
11:01PM 39.7179 -104.6620 360° North 161 185 7,600 -960 Descending FlightAware ADS-B
11:02PM 39.7290 -104.6620 360° North 159 183 7,300 -1,020 Descending FlightAware ADS-B
11:02PM 39.7400 -104.6620 360° North 157 181 7,100 -780 Descending FlightAware ADS-B
11:02PM 39.7592 -104.6610 North 154 177 6,800 -780 Descending FlightAware ADS-B
11:02PM 39.7632 -104.6610 360° North 153 176 6,700 -1,080 Descending FlightAware ADS-B
11:03PM 39.7754 -104.6610 360° North 150 173 6,400 -900 Descending FlightAware ADS-B
11:03PM 39.7872 -104.6610 360° North 147 169 6,200 -840 Descending FlightAware ADS-B
11:03PM 39.7907 -104.6610 360° North 146 168 6,100 -780 Descending FlightAware ADS-B
11:03PM 39.7979 -104.6610 360° North 145 167 6,000 -600 Descending FlightAware ADS-B
11:03PM 39.8047 -104.6610 360° North 146 168 5,900 -840 Descending FlightAware ADS-B
11:04PM 39.8132 -104.6610 360° North 147 169 5,700 -900 Descending FlightAware ADS-B
11:04PM 39.8236 -104.6610 360° North 149 171 5,500 -840 Descending FlightAware ADS-B
11:04PM 39.8291 -104.6610 360° North 152 175 5,400 -780 Descending FlightAware ADS-B